createdAt,value
2022-10-07T03:01:46.691Z,99.90
2022-10-07T03:04:13.741Z,99.90
2022-10-07T03:06:42.914Z,99.90
2022-10-07T03:09:09.783Z,99.90
2022-10-07T03:11:37.693Z,99.90
2022-10-07T03:14:05.815Z,99.90
2022-10-07T03:16:32.778Z,99.90
2022-10-07T03:18:59.732Z,99.90
2022-10-07T03:21:26.822Z,99.90
2022-10-07T03:23:54.240Z,99.90
2022-10-07T03:26:21.222Z,99.90
2022-10-07T03:28:48.537Z,99.90
2022-10-07T03:31:15.595Z,99.90
2022-10-07T03:33:42.667Z,99.90
2022-10-07T03:36:09.435Z,99.90
2022-10-07T03:38:36.258Z,99.90
2022-10-07T03:41:04.584Z,99.90
2022-10-07T03:43:32.117Z,99.90
2022-10-07T03:46:02.386Z,99.90
2022-10-07T03:48:30.687Z,99.90
2022-10-07T03:50:57.797Z,99.90
2022-10-07T03:53:26.170Z,99.90
2022-10-07T03:55:53.094Z,99.90
2022-10-07T03:58:20.872Z,99.90
2022-10-07T04:00:48.072Z,99.90
2022-10-07T04:03:15.759Z,99.90
2022-10-07T04:05:42.664Z,99.90
2022-10-07T04:08:15.784Z,99.90
2022-10-07T04:10:42.518Z,99.90
2022-10-07T04:13:09.506Z,99.90
2022-10-07T04:15:36.737Z,99.90
2022-10-07T04:18:03.482Z,99.90
2022-10-07T04:20:30.285Z,99.90
2022-10-07T04:22:57.129Z,99.90
2022-10-07T04:25:35.836Z,99.90
2022-10-07T04:28:05.693Z,99.90
2022-10-07T04:30:34.704Z,99.90
2022-10-07T04:33:02.846Z,99.90
2022-10-07T04:35:29.878Z,99.90
2022-10-07T04:37:57.116Z,99.90
2022-10-07T04:40:24.085Z,99.90
2022-10-07T04:43:09.784Z,99.90
2022-10-07T04:45:36.626Z,99.90
2022-10-07T04:48:05.718Z,99.90
2022-10-07T04:50:38.906Z,99.90
2022-10-07T04:53:06.185Z,99.90
2022-10-07T04:55:40.057Z,99.90
2022-10-07T04:58:07.005Z,99.90
2022-10-07T05:00:34.294Z,99.90
2022-10-07T05:03:01.204Z,99.90
2022-10-07T05:05:28.076Z,99.90
2022-10-07T05:07:55.232Z,99.90
2022-10-07T05:10:22.166Z,99.90
2022-10-07T05:12:52.535Z,99.90
2022-10-07T05:15:22.339Z,99.90
2022-10-07T05:17:49.442Z,99.90
2022-10-07T05:20:16.213Z,99.90
2022-10-07T05:22:42.960Z,99.90
2022-10-07T05:25:09.707Z,99.90
2022-10-07T05:27:36.444Z,99.90
2022-10-07T05:30:03.474Z,99.90
2022-10-07T05:32:30.295Z,99.90
2022-10-07T05:34:57.030Z,99.90
2022-10-07T05:37:24.000Z,99.90
2022-10-07T05:39:51.954Z,99.90
2022-10-07T05:42:18.689Z,99.90
2022-10-07T05:44:46.216Z,99.90
2022-10-07T05:47:13.141Z,99.90
2022-10-07T05:49:41.416Z,99.90
2022-10-07T05:52:08.296Z,99.90
2022-10-07T05:54:35.067Z,99.90
2022-10-07T05:57:02.986Z,99.90
2022-10-07T05:59:31.146Z,99.90
2022-10-07T06:02:00.614Z,99.90
2022-10-07T06:04:27.598Z,99.90
2022-10-07T06:06:54.354Z,99.90
2022-10-07T06:09:39.519Z,99.90
2022-10-07T06:12:25.059Z,99.90
2022-10-07T06:14:51.791Z,99.90
2022-10-07T06:17:18.565Z,99.90
2022-10-07T06:19:45.272Z,99.90
2022-10-07T06:22:12.087Z,99.90
2022-10-07T06:24:38.821Z,99.90
2022-10-07T06:27:05.547Z,99.90
2022-10-07T06:29:32.426Z,99.90
2022-10-07T06:31:59.603Z,99.90
2022-10-07T06:34:26.357Z,99.90
2022-10-07T06:36:54.787Z,99.90
2022-10-07T06:39:21.575Z,99.90
2022-10-07T06:41:48.350Z,99.90
2022-10-07T06:44:15.091Z,99.90
2022-10-07T06:46:41.832Z,99.90
2022-10-07T06:49:08.574Z,99.90
2022-10-07T06:51:35.269Z,99.90
2022-10-07T06:54:02.021Z,99.90
2022-10-07T06:56:29.051Z,99.90
2022-10-07T06:58:55.835Z,99.90
2022-10-07T07:01:23.125Z,99.90
2022-10-07T07:03:49.861Z,99.90
2022-10-07T07:06:16.626Z,99.90
2022-10-07T07:08:45.844Z,99.90
2022-10-07T07:11:32.117Z,99.90
2022-10-07T07:13:58.968Z,99.90
2022-10-07T07:16:25.785Z,99.90
2022-10-07T07:18:56.443Z,99.90
2022-10-07T07:21:23.407Z,99.90
2022-10-07T07:23:51.686Z,99.90
2022-10-07T07:26:18.482Z,99.90
2022-10-07T07:28:50.491Z,99.90
2022-10-07T07:31:17.232Z,99.90
2022-10-07T07:33:43.995Z,99.90
2022-10-07T07:36:17.633Z,99.90
2022-10-07T07:38:54.018Z,99.90
2022-10-07T07:41:21.801Z,99.90
2022-10-07T07:43:50.505Z,99.90
2022-10-07T07:46:18.776Z,99.90
2022-10-07T07:48:46.466Z,99.90
2022-10-07T07:51:14.114Z,99.90
2022-10-07T07:53:40.891Z,99.90
2022-10-07T07:56:07.641Z,99.90
2022-10-07T07:58:34.420Z,99.90
2022-10-07T08:01:06.160Z,99.90
2022-10-07T08:03:33.678Z,99.90
2022-10-07T08:06:02.011Z,99.90
2022-10-07T08:08:30.101Z,99.90
2022-10-07T08:10:57.698Z,99.90
2022-10-07T08:13:24.862Z,99.90
2022-10-07T08:15:56.900Z,99.90
2022-10-07T08:18:24.275Z,99.90
2022-10-07T08:21:01.863Z,99.90
2022-10-07T08:23:30.208Z,99.90
2022-10-07T08:25:57.343Z,99.90
2022-10-07T08:28:24.270Z,99.90
2022-10-07T08:30:51.756Z,99.90
2022-10-07T08:33:18.780Z,99.90
2022-10-07T08:35:52.296Z,99.90
2022-10-07T08:38:19.076Z,99.90
2022-10-07T08:40:49.507Z,99.90
2022-10-07T08:43:17.461Z,99.90
2022-10-07T08:45:44.651Z,99.90
2022-10-07T08:48:14.639Z,99.90
2022-10-07T08:50:52.452Z,99.90
2022-10-07T08:53:23.019Z,99.90
2022-10-07T08:55:56.792Z,99.90
2022-10-07T08:58:35.486Z,99.90
2022-10-07T09:01:24.692Z,99.90
2022-10-07T09:04:03.473Z,99.90
2022-10-07T09:06:42.636Z,99.90
2022-10-07T09:09:21.599Z,99.90
2022-10-07T09:11:48.361Z,99.90
2022-10-07T09:14:28.207Z,99.90
2022-10-07T09:17:04.606Z,99.90
2022-10-07T09:19:38.222Z,99.90
2022-10-07T09:22:11.209Z,99.90
2022-10-07T09:24:38.071Z,99.90
2022-10-07T09:27:11.853Z,99.90
2022-10-07T09:29:38.881Z,99.90
2022-10-07T09:32:05.627Z,99.90
2022-10-07T09:34:32.387Z,99.90
2022-10-07T09:37:11.987Z,99.90
2022-10-07T09:39:39.083Z,99.90
2022-10-07T09:42:07.312Z,99.90
2022-10-07T09:44:34.117Z,99.90
2022-10-07T09:47:19.185Z,99.90
2022-10-07T09:49:48.604Z,99.90
2022-10-07T09:52:19.406Z,99.90
2022-10-07T09:54:47.662Z,99.90
2022-10-07T09:57:27.653Z,99.90
2022-10-07T10:00:16.458Z,99.90
2022-10-07T10:02:54.750Z,99.90
2022-10-07T10:05:35.573Z,99.90
2022-10-07T10:08:23.037Z,99.90
2022-10-07T10:11:00.047Z,99.70
2022-10-07T10:13:32.188Z,99.70
2022-10-07T10:15:59.326Z,99.70
2022-10-07T10:18:33.887Z,99.20
2022-10-07T10:21:27.109Z,98.90
2022-10-07T10:23:56.958Z,98.70
2022-10-07T10:26:52.015Z,98.30
2022-10-07T10:29:37.562Z,98.50
2022-10-07T10:32:22.634Z,98.20
2022-10-07T10:35:03.502Z,97.60
2022-10-07T10:37:50.371Z,97.10
2022-10-07T10:40:52.026Z,95.90
2022-10-07T10:43:24.750Z,95.70
2022-10-07T10:46:25.799Z,95.60
2022-10-07T10:49:20.099Z,95.70
2022-10-07T10:52:08.635Z,95.30
2022-10-07T10:54:52.803Z,95.40
2022-10-07T10:57:31.791Z,95.20
2022-10-07T11:00:15.426Z,95.10
2022-10-07T11:03:05.788Z,95.10
2022-10-07T11:05:35.791Z,95.00
2022-10-07T11:08:04.996Z,94.80
2022-10-07T11:10:55.585Z,94.70
2022-10-07T11:13:37.466Z,94.70
2022-10-07T11:16:39.569Z,94.70
2022-10-07T11:19:24.258Z,94.30
2022-10-07T11:21:52.398Z,94.40
2022-10-07T11:24:56.904Z,94.50
2022-10-07T11:27:31.003Z,94.50
2022-10-07T11:29:57.829Z,94.70
2022-10-07T11:32:25.184Z,94.40
2022-10-07T11:35:19.583Z,94.10
2022-10-07T11:38:10.855Z,94.10
2022-10-07T11:40:52.733Z,94.10
2022-10-07T11:43:38.179Z,94.00
2022-10-07T11:46:11.672Z,93.70
2022-10-07T11:48:42.695Z,93.90
2022-10-07T11:51:09.504Z,94.20
2022-10-07T11:53:37.791Z,94.30
2022-10-07T11:56:40.965Z,94.50
2022-10-07T11:59:07.859Z,94.80
2022-10-07T12:01:34.662Z,94.80
2022-10-07T12:04:22.347Z,95.10
2022-10-07T12:07:26.503Z,95.40
2022-10-07T12:09:59.479Z,95.50
2022-10-07T12:12:46.690Z,95.60
2022-10-07T12:15:23.789Z,95.60
2022-10-07T12:18:17.672Z,95.70
2022-10-07T12:20:51.681Z,95.90
2022-10-07T12:23:25.913Z,96.10
2022-10-07T12:25:59.549Z,96.30
2022-10-07T12:28:35.769Z,96.40
2022-10-07T12:31:06.160Z,96.40
2022-10-07T12:33:35.988Z,96.40
2022-10-07T12:36:31.235Z,96.60
2022-10-07T12:38:59.154Z,96.80
2022-10-07T12:41:25.897Z,96.90
2022-10-07T12:44:06.412Z,96.80
2022-10-07T12:46:50.251Z,96.70
2022-10-07T12:49:31.063Z,96.50
2022-10-07T12:52:23.335Z,96.70
2022-10-07T12:55:00.938Z,96.60
2022-10-07T12:57:35.534Z,96.50
2022-10-07T13:00:13.582Z,96.40
2022-10-07T13:02:55.751Z,96.20
2022-10-07T13:05:53.489Z,96.00
2022-10-07T13:08:38.898Z,95.90
2022-10-07T13:11:17.508Z,95.80
2022-10-07T13:13:55.532Z,95.60
2022-10-07T13:16:39.914Z,95.40
2022-10-07T13:19:15.750Z,95.40
2022-10-07T13:21:58.992Z,95.40
2022-10-07T13:24:26.299Z,95.40
2022-10-07T13:26:53.066Z,95.60
2022-10-07T13:29:24.760Z,95.60
2022-10-07T13:32:17.977Z,95.60
2022-10-07T13:34:46.372Z,95.50
2022-10-07T13:37:35.000Z,95.60
2022-10-07T13:40:20.934Z,95.60
2022-10-07T13:42:59.203Z,95.70
2022-10-07T13:45:26.390Z,95.80
2022-10-07T13:47:53.174Z,95.90
2022-10-07T13:50:30.631Z,96.00
2022-10-07T13:52:57.428Z,96.00
2022-10-07T13:55:28.287Z,95.90
2022-10-07T13:57:57.439Z,96.00
2022-10-07T14:00:25.075Z,96.00
2022-10-07T14:02:52.275Z,95.90
2022-10-07T14:05:24.967Z,95.90
2022-10-07T14:07:56.134Z,96.10
2022-10-07T14:10:24.993Z,96.10
2022-10-07T14:12:56.773Z,96.10
2022-10-07T14:15:25.023Z,96.10
2022-10-07T14:17:55.306Z,96.20
2022-10-07T14:20:26.896Z,96.20
2022-10-07T14:22:54.985Z,96.30
2022-10-07T14:25:29.112Z,96.30
2022-10-07T14:28:07.690Z,96.40
2022-10-07T14:30:57.161Z,96.50
2022-10-07T14:34:03.392Z,96.50
2022-10-07T14:36:30.178Z,96.50
2022-10-07T14:38:59.905Z,96.60
2022-10-07T14:41:28.844Z,96.60
2022-10-07T14:44:00.078Z,96.60
2022-10-07T14:46:27.746Z,96.70
2022-10-07T14:48:54.678Z,96.70
2022-10-07T14:51:27.728Z,96.80
2022-10-07T14:54:02.141Z,96.80
2022-10-07T14:56:31.231Z,96.80
2022-10-07T14:58:58.033Z,96.90
2022-10-07T15:01:25.196Z,96.90
2022-10-07T15:03:52.806Z,97.00
2022-10-07T15:06:19.946Z,97.10
2022-10-07T15:08:47.219Z,97.20
2022-10-07T15:11:18.704Z,97.30
2022-10-07T15:13:50.044Z,97.30
2022-10-07T15:16:25.525Z,97.40
2022-10-07T15:18:53.302Z,97.50
2022-10-07T15:21:23.907Z,97.50
2022-10-07T15:23:54.017Z,97.60
2022-10-07T15:26:25.150Z,97.70
2022-10-07T15:28:56.500Z,97.80
2022-10-07T15:31:24.821Z,97.80
2022-10-07T15:33:51.897Z,97.90
2022-10-07T15:36:18.701Z,98.30
2022-10-07T15:38:45.531Z,98.00
2022-10-07T15:41:34.193Z,98.10
2022-10-07T15:44:03.137Z,98.30
2022-10-07T15:46:31.049Z,98.40
2022-10-07T15:48:59.191Z,98.50
2022-10-07T15:51:26.479Z,98.60
2022-10-07T15:53:53.822Z,98.70
2022-10-07T15:56:20.926Z,98.80
2022-10-07T15:58:47.912Z,98.90
2022-10-07T16:01:15.461Z,99.20
2022-10-07T16:03:43.870Z,99.30
2022-10-07T16:06:21.503Z,99.30
2022-10-07T16:08:51.942Z,99.50
2022-10-07T16:11:19.595Z,99.70
2022-10-07T16:13:49.425Z,99.90
2022-10-07T16:16:22.783Z,99.90
2022-10-07T16:18:50.448Z,99.90
2022-10-07T16:21:22.706Z,99.90
2022-10-07T16:23:55.018Z,99.90
2022-10-07T16:26:24.461Z,99.90
2022-10-07T16:29:09.953Z,99.90
2022-10-07T16:31:40.307Z,99.90
2022-10-07T16:34:07.659Z,99.90
2022-10-07T16:36:35.945Z,99.90
2022-10-07T16:39:08.717Z,99.90
2022-10-07T16:41:41.422Z,99.90
2022-10-07T16:44:08.275Z,99.90
2022-10-07T16:46:35.120Z,99.90
2022-10-07T16:49:03.556Z,99.90
2022-10-07T16:51:33.231Z,99.90
2022-10-07T16:54:01.758Z,99.90
2022-10-07T16:56:37.745Z,99.90
2022-10-07T16:59:06.809Z,99.90
2022-10-07T17:01:33.794Z,99.90
2022-10-07T17:04:01.041Z,99.90
2022-10-07T17:06:29.431Z,99.90
2022-10-07T17:08:56.750Z,99.90
2022-10-07T17:11:29.870Z,99.90
2022-10-07T17:14:01.591Z,99.90
2022-10-07T17:16:29.813Z,99.90
2022-10-07T17:18:56.611Z,99.90
2022-10-07T17:21:23.399Z,99.90
2022-10-07T17:23:50.325Z,99.90
2022-10-07T17:26:17.417Z,99.90
2022-10-07T17:28:44.297Z,99.90
2022-10-07T17:31:12.870Z,99.90
2022-10-07T17:33:40.579Z,99.90
2022-10-07T17:36:08.226Z,99.90
2022-10-07T17:38:38.825Z,99.90
2022-10-07T17:41:16.641Z,99.90
2022-10-07T17:43:43.749Z,99.90
2022-10-07T17:46:12.778Z,99.90
2022-10-07T17:48:53.388Z,99.90
2022-10-07T17:51:24.401Z,99.90
2022-10-07T17:53:52.170Z,99.90
2022-10-07T17:56:19.063Z,99.90
2022-10-07T17:58:47.178Z,99.90
2022-10-07T18:01:16.077Z,99.90
2022-10-07T18:03:43.297Z,99.90
2022-10-07T18:06:10.773Z,99.90
2022-10-07T18:08:41.169Z,99.90
2022-10-07T18:11:08.033Z,99.90
2022-10-07T18:13:53.370Z,99.90
2022-10-07T18:16:20.626Z,99.90
2022-10-07T18:18:48.383Z,99.90
2022-10-07T18:21:15.282Z,99.90
2022-10-07T18:23:42.338Z,99.90
2022-10-07T18:26:10.737Z,99.90
2022-10-07T18:28:38.449Z,99.90
2022-10-07T18:31:11.810Z,99.90
2022-10-07T18:33:39.148Z,99.90
2022-10-07T18:36:16.361Z,99.90
2022-10-07T18:38:43.692Z,99.90
2022-10-07T18:41:12.509Z,99.90
2022-10-07T18:43:39.513Z,99.90
2022-10-07T18:46:10.340Z,99.90
2022-10-07T18:48:38.028Z,99.90
2022-10-07T18:51:05.582Z,99.90
2022-10-07T18:53:42.243Z,99.90
2022-10-07T18:56:31.088Z,99.90
2022-10-07T18:59:11.487Z,99.90
2022-10-07T19:01:53.490Z,99.90
2022-10-07T19:04:33.818Z,99.90
2022-10-07T19:07:12.642Z,99.90
2022-10-07T19:09:51.613Z,99.90
2022-10-07T19:12:42.563Z,99.90
2022-10-07T19:15:24.400Z,99.90
2022-10-07T19:18:03.571Z,99.90
2022-10-07T19:20:43.412Z,99.90
2022-10-07T19:23:22.672Z,99.90
2022-10-07T19:26:08.926Z,99.90
2022-10-07T19:28:46.303Z,99.90
2022-10-07T19:31:36.490Z,99.90
2022-10-07T19:34:25.114Z,99.90
2022-10-07T19:37:03.706Z,99.90
2022-10-07T19:39:41.845Z,99.90
2022-10-07T19:42:18.581Z,99.90
2022-10-07T19:44:55.547Z,99.90
2022-10-07T19:47:33.563Z,99.90
2022-10-07T19:50:13.585Z,99.90
2022-10-07T19:52:52.309Z,99.90
2022-10-07T19:55:34.264Z,99.90
2022-10-07T19:58:13.451Z,99.90
2022-10-07T20:00:51.268Z,99.90
2022-10-07T20:03:26.951Z,99.90
2022-10-07T20:06:10.467Z,99.90
2022-10-07T20:08:56.884Z,99.90
2022-10-07T20:11:32.689Z,99.90
2022-10-07T20:14:08.571Z,99.90
2022-10-07T20:16:47.539Z,99.90
2022-10-07T20:19:27.628Z,99.90
2022-10-07T20:22:19.431Z,99.90
2022-10-07T20:25:02.426Z,99.90
2022-10-07T20:27:42.460Z,99.90
2022-10-07T20:30:25.864Z,99.90
2022-10-07T20:33:01.654Z,99.90
2022-10-07T20:35:43.276Z,99.90
2022-10-07T20:38:19.586Z,99.90
2022-10-07T20:41:13.583Z,99.90
2022-10-07T20:43:51.588Z,99.90
2022-10-07T20:46:36.214Z,99.90
2022-10-07T20:49:34.727Z,99.90
2022-10-07T20:52:21.617Z,99.90
2022-10-07T20:55:04.756Z,99.90
2022-10-07T20:57:45.225Z,99.90
2022-10-07T21:00:16.352Z,99.90
2022-10-07T21:02:44.574Z,99.90
2022-10-07T21:05:11.704Z,99.90
2022-10-07T21:07:38.849Z,99.90
2022-10-07T21:10:05.865Z,99.90
2022-10-07T21:12:32.611Z,99.90
2022-10-07T21:15:01.191Z,99.90
2022-10-07T21:17:28.049Z,99.90
